Date,TemperatureHighF,TemperatureAvgF,TemperatureLowF,DewpointHighF,DewpointAvgF,DewpointLowF,HumidityHigh,HumidityAvg,HumidityLow,PressureMaxIn,PressureMinIn,WindSpeedMaxMPH,WindSpeedAvgMPH,GustSpeedMaxMPH,PrecipitationSumIn
2013-9-1,90.0,77.1,69.6,82.4,74.3,69.2,100,92,62,29.61,29.53,8,2,12,0.00
2013-9-2,86.7,73.6,62.8,74.1,65.8,59.3,100,80,42,29.74,29.61,12,4,18,0.00
2013-9-3,86.0,69.5,55.8,70.9,60.5,55.5,100,78,40,29.87,29.74,10,2,17,0.00
2013-9-4,78.1,63.7,62.6,70.3,63.2,62.3,99,98,70,29.96,29.83,2,0,4,0.00
2013-9-5,96.1,75.6,57.4,72.4,63.7,56.4,99,74,30,30.04,29.96,7,1,10,0.00
2013-9-6,92.1,75.6,61.2,74.6,66.5,60.8,100,78,39,30.02,29.86,9,2,14,0.00
2013-9-7,91.2,76.3,62.4,77.6,68.6,60.4,100,81,37,29.88,29.74,15,4,22,0.00
2013-9-8,94.1,78.7,70.5,80.2,73.6,69.2,100,87,47,29.81,29.73,19,2,24,0.24
2013-9-9,95.4,81.0,69.6,82.7,75.0,69.4,100,85,47,29.79,29.71,14,5,20,0.00
2013-9-10,96.6,82.9,70.9,79.5,72.6,64.9,100,77,37,29.90,29.79,17,5,21,0.00
2013-9-11,94.6,82.2,68.7,77.1,70.2,58.3,100,72,31,29.94,29.84,17,6,27,0.00
2013-9-12,84.4,73.3,59.7,76.7,65.4,45.6,100,80,28,29.91,29.80,19,5,25,0.35
2013-9-13,74.3,62.4,50.9,60.7,50.9,37.2,99,71,29,30.00,29.90,14,6,22,0.00
2013-9-14,81.0,60.4,42.6,54.8,47.7,37.6,100,71,23,30.02,29.87,8,2,12,0.00
2013-9-15,78.3,64.8,51.1,68.8,56.8,50.8,100,79,40,29.96,29.81,16,5,23,0.00
2013-9-16,72.9,62.5,52.9,63.6,57.8,52.4,99,86,54,30.13,29.96,14,6,24,0.00
2013-9-17,80.6,64.4,50.5,63.8,57.1,50.3,99,81,45,30.11,29.92,9,2,14,0.00
2013-9-18,86.9,73.0,62.1,78.1,69.6,61.5,100,90,59,29.92,29.77,16,5,24,0.00
2013-9-19,93.2,81.1,72.9,79.6,74.1,68.5,100,82,46,29.81,29.65,17,9,26,0.00
2013-9-20,79.3,68.6,56.8,79.1,67.3,56.6,100,96,80,29.74,29.68,14,5,21,0.00
2013-9-21,73.6,61.0,51.1,60.3,52.7,45.5,100,78,39,29.77,29.70,14,4,21,0.00
2013-9-22,82.4,61.6,45.1,58.8,49.9,39.9,100,73,26,29.98,29.77,8,2,11,0.00
2013-9-23,81.7,62.8,46.9,56.1,49.2,38.4,100,69,23,30.00,29.89,10,3,14,0.00
2013-9-24,84.9,66.0,48.2,64.9,57.3,47.9,99,78,41,29.92,29.77,10,3,15,0.00
2013-9-25,90.0,70.3,55.4,66.1,61.0,55.1,100,77,34,29.84,29.76,11,3,14,0.00
2013-9-26,91.6,71.0,55.2,64.2,58.0,51.2,99,70,27,29.98,29.83,7,2,11,0.00
2013-9-27,89.1,68.8,51.3,61.6,54.2,42.8,100,69,20,30.07,29.95,11,2,18,0.00
2013-9-28,85.1,70.2,53.6,69.9,60.4,53.3,99,75,44,30.00,29.86,22,6,30,0.00
2013-9-29,79.7,63.4,48.7,68.3,52.5,37.6,99,75,24,30.00,29.91,12,4,19,0.00
2013-9-30,79.3,61.6,44.8,64.8,56.0,44.5,99,85,43,29.93,29.82,15,3,20,0.00